Terminal Aerodrome Forecast
Issued by NWS Charleston, WV

Current Version | Previous Version | Text Only | Print | Product List | Glossary Off
Versions: 1 2 3 4 5 6 7 8 9 10 11 12 13 14 15 16 17 18 19 20 21 22

252
FTUS41 KRLX 092333
TAFEKN
TAF
KEKN 092333Z 1000/1024 VRB03KT 5SM -SN SCT024 OVC030
     FM101300 28007KT P6SM SCT035
     FM102200 28005KT P6SM BKN080=

USA.gov is the U.S. government's official web portal to all federal, state and local government web resources and services.